sensor_id;sensor_type;location;lat;lon;timestamp;pressure;altitude;pressure_sealevel;temperature;humidity
44663;BME280;30381;52.754;18.258;2023-04-27T00:10:00;100788.31;;;3.06;84.76
44663;BME280;30381;52.754;18.258;2023-04-27T00:13:33;100784.54;;;3.03;84.94
44663;BME280;30381;52.754;18.258;2023-04-27T00:17:20;100782.85;;;3.00;85.28
44663;BME280;30381;52.754;18.258;2023-04-27T00:20:53;100778.42;;;2.99;85.59
44663;BME280;30381;52.754;18.258;2023-04-27T00:53:17;100790.76;;;2.82;88.74
44663;BME280;30381;52.754;18.258;2023-04-27T01:06:25;100798.20;;;2.99;89.03
44663;BME280;30381;52.754;18.258;2023-04-27T01:22:25;100808.79;;;2.92;89.98
44663;BME280;30381;52.754;18.258;2023-04-27T01:26:01;100810.40;;;2.94;90.17
44663;BME280;30381;52.754;18.258;2023-04-27T01:35:29;100804.77;;;3.03;91.27
44663;BME280;30381;52.754;18.258;2023-04-27T01:39:02;100800.20;;;3.09;91.42
44663;BME280;30381;52.754;18.258;2023-04-27T01:42:45;100806.17;;;3.16;91.71
44663;BME280;30381;52.754;18.258;2023-04-27T01:49:16;100811.04;;;3.27;92.04
44663;BME280;30381;52.754;18.258;2023-04-27T01:52:31;100810.45;;;3.33;92.25
44663;BME280;30381;52.754;18.258;2023-04-27T01:55:03;100811.43;;;3.37;92.06
44663;BME280;30381;52.754;18.258;2023-04-27T02:02:23;100817.97;;;3.46;92.51
44663;BME280;30381;52.754;18.258;2023-04-27T02:18:56;100820.98;;;3.62;92.84
44663;BME280;30381;52.754;18.258;2023-04-27T02:35:10;100831.10;;;3.66;93.43
44663;BME280;30381;52.754;18.258;2023-04-27T02:48:20;100828.45;;;3.61;93.97
44663;BME280;30381;52.754;18.258;2023-04-27T02:52:00;100831.05;;;3.59;94.24
44663;BME280;30381;52.754;18.258;2023-04-27T02:58:21;100830.34;;;3.55;94.79
44663;BME280;30381;52.754;18.258;2023-04-27T03:01:38;100835.10;;;3.54;94.76
44663;BME280;30381;52.754;18.258;2023-04-27T03:05:14;100834.69;;;3.51;95.02
44663;BME280;30381;52.754;18.258;2023-04-27T03:15:14;100836.85;;;3.46;95.46
44663;BME280;30381;52.754;18.258;2023-04-27T03:19:05;100841.02;;;3.44;95.64
44663;BME280;30381;52.754;18.258;2023-04-27T03:29:15;100857.83;;;3.47;96.99
44663;BME280;30381;52.754;18.258;2023-04-27T03:41:33;100871.11;;;3.62;97.37
44663;BME280;30381;52.754;18.258;2023-04-27T03:45:10;100869.91;;;3.68;97.67
44663;BME280;30381;52.754;18.258;2023-04-27T03:54:34;100876.16;;;3.86;97.92
44663;BME280;30381;52.754;18.258;2023-04-27T03:58:39;100877.44;;;3.97;98.33
44663;BME280;30381;52.754;18.258;2023-04-27T04:14:42;100896.34;;;5.04;98.64
44663;BME280;30381;52.754;18.258;2023-04-27T04:17:51;100894.67;;;5.15;98.41
44663;BME280;30381;52.754;18.258;2023-04-27T04:23:47;100900.33;;;5.41;98.04
44663;BME280;30381;52.754;18.258;2023-04-27T04:27:43;100903.23;;;5.50;98.03
44663;BME280;30381;52.754;18.258;2023-04-27T04:43:56;100913.09;;;6.26;97.71
44663;BME280;30381;52.754;18.258;2023-04-27T06:08:07;100928.43;;;18.74;66.68
44663;BME280;30381;52.754;18.258;2023-04-27T06:33:08;100934.59;;;19.24;55.60
44663;BME280;30381;52.754;18.258;2023-04-27T06:37:22;100937.52;;;19.15;56.69
44663;BME280;30381;52.754;18.258;2023-04-27T06:40:27;100938.45;;;19.36;56.76
44663;BME280;30381;52.754;18.258;2023-04-27T06:55:16;100939.27;;;18.98;50.73
44663;BME280;30381;52.754;18.258;2023-04-27T07:08:37;100948.60;;;18.45;49.16
44663;BME280;30381;52.754;18.258;2023-04-27T07:12:00;100943.09;;;18.59;49.78
44663;BME280;30381;52.754;18.258;2023-04-27T07:15:17;100950.55;;;18.35;47.29
44663;BME280;30381;52.754;18.258;2023-04-27T07:31:57;100955.74;;;16.97;47.56
44663;BME280;30381;52.754;18.258;2023-04-27T07:41:47;100945.55;;;17.59;47.17
44663;BME280;30381;52.754;18.258;2023-04-27T07:51:25;100946.42;;;17.72;46.76
44663;BME280;30381;52.754;18.258;2023-04-27T08:07:07;100938.86;;;17.42;45.44
44663;BME280;30381;52.754;18.258;2023-04-27T08:21:41;100945.35;;;17.33;42.87
44663;BME280;30381;52.754;18.258;2023-04-27T08:33:25;100934.88;;;16.89;42.96
44663;BME280;30381;52.754;18.258;2023-04-27T08:36:45;100940.66;;;17.31;43.95
44663;BME280;30381;52.754;18.258;2023-04-27T08:52:56;100950.55;;;14.73;42.69
44663;BME280;30381;52.754;18.258;2023-04-27T08:56:07;100951.18;;;15.06;43.82
44663;BME280;30381;52.754;18.258;2023-04-27T09:02:29;100948.46;;;15.96;43.15
44663;BME280;30381;52.754;18.258;2023-04-27T09:05:27;100944.05;;;16.25;42.68
44663;BME280;30381;52.754;18.258;2023-04-27T09:08:20;100942.52;;;16.50;42.99
44663;BME280;30381;52.754;18.258;2023-04-27T09:11:35;100941.31;;;16.46;42.54
44663;BME280;30381;52.754;18.258;2023-04-27T09:15:01;100944.39;;;16.39;42.26
44663;BME280;30381;52.754;18.258;2023-04-27T09:18:11;100935.89;;;16.70;42.00
44663;BME280;30381;52.754;18.258;2023-04-27T09:30:49;100940.24;;;16.80;40.69
44663;BME280;30381;52.754;18.258;2023-04-27T09:33:53;100941.14;;;16.21;40.75
44663;BME280;30381;52.754;18.258;2023-04-27T09:40:48;100943.39;;;15.00;41.11
44663;BME280;30381;52.754;18.258;2023-04-27T09:44:22;100945.03;;;15.01;41.42
44663;BME280;30381;52.754;18.258;2023-04-27T09:48:19;100939.73;;;15.62;40.68
44663;BME280;30381;52.754;18.258;2023-04-27T10:10:47;100932.61;;;17.95;38.26
44663;BME280;30381;52.754;18.258;2023-04-27T10:17:13;100943.47;;;17.01;38.40
44663;BME280;30381;52.754;18.258;2023-04-27T10:24:09;100946.14;;;16.53;38.10
44663;BME280;30381;52.754;18.258;2023-04-27T10:28:13;100947.03;;;16.43;37.82
44663;BME280;30381;52.754;18.258;2023-04-27T10:31:43;100947.66;;;16.50;38.83
44663;BME280;30381;52.754;18.258;2023-04-27T10:38:39;100953.14;;;17.03;38.35
44663;BME280;30381;52.754;18.258;2023-04-27T10:42:08;100954.40;;;17.43;38.73
44663;BME280;30381;52.754;18.258;2023-04-27T10:45:37;100944.73;;;17.60;37.11
44663;BME280;30381;52.754;18.258;2023-04-27T10:51:59;100952.84;;;16.93;38.05
44663;BME280;30381;52.754;18.258;2023-04-27T11:15:07;100970.23;;;15.26;37.83
44663;BME280;30381;52.754;18.258;2023-04-27T11:18:48;100964.48;;;15.17;37.67
44663;BME280;30381;52.754;18.258;2023-04-27T11:52:36;100978.41;;;16.54;37.43
44663;BME280;30381;52.754;18.258;2023-04-27T11:59:05;100984.66;;;15.79;37.36
44663;BME280;30381;52.754;18.258;2023-04-27T12:02:58;100981.98;;;15.35;37.38
44663;BME280;30381;52.754;18.258;2023-04-27T12:06:06;100983.08;;;15.03;37.20
44663;BME280;30381;52.754;18.258;2023-04-27T12:13:14;100981.14;;;14.67;37.65
44663;BME280;30381;52.754;18.258;2023-04-27T12:30:00;100982.36;;;14.74;37.71
44663;BME280;30381;52.754;18.258;2023-04-27T12:33:39;100993.46;;;14.51;37.83
44663;BME280;30381;52.754;18.258;2023-04-27T12:36:45;100991.64;;;14.54;37.78
44663;BME280;30381;52.754;18.258;2023-04-27T12:39:26;100995.70;;;14.47;37.34
44663;BME280;30381;52.754;18.258;2023-04-27T12:42:00;100997.04;;;14.39;37.55
44663;BME280;30381;52.754;18.258;2023-04-27T12:44:46;100997.99;;;14.27;37.57
44663;BME280;30381;52.754;18.258;2023-04-27T12:47:33;100997.23;;;14.18;37.73
44663;BME280;30381;52.754;18.258;2023-04-27T13:00:18;101007.85;;;14.01;37.94
44663;BME280;30381;52.754;18.258;2023-04-27T13:23:55;101006.05;;;14.71;37.89
44663;BME280;30381;52.754;18.258;2023-04-27T13:27:27;101003.56;;;14.76;37.60
44663;BME280;30381;52.754;18.258;2023-04-27T13:39:37;101014.27;;;14.48;36.94
44663;BME280;30381;52.754;18.258;2023-04-27T13:45:57;101019.31;;;14.27;37.55
44663;BME280;30381;52.754;18.258;2023-04-27T13:49:14;101017.66;;;14.26;37.60
44663;BME280;30381;52.754;18.258;2023-04-27T13:52:17;101017.69;;;14.12;37.30
44663;BME280;30381;52.754;18.258;2023-04-27T13:55:22;101017.90;;;14.08;37.76
44663;BME280;30381;52.754;18.258;2023-04-27T13:58:38;101016.70;;;14.04;37.81
44663;BME280;30381;52.754;18.258;2023-04-27T14:07:50;101011.56;;;14.13;37.72
44663;BME280;30381;52.754;18.258;2023-04-27T14:10:57;101013.30;;;14.17;37.54
44663;BME280;30381;52.754;18.258;2023-04-27T14:14:18;101008.77;;;14.41;37.47
44663;BME280;30381;52.754;18.258;2023-04-27T14:23:51;101013.73;;;14.32;37.35
44663;BME280;30381;52.754;18.258;2023-04-27T14:26:42;101011.93;;;14.16;37.28
44663;BME280;30381;52.754;18.258;2023-04-27T14:29:31;101017.60;;;14.02;37.37
44663;BME280;30381;52.754;18.258;2023-04-27T14:32:32;101023.31;;;13.86;37.33
44663;BME280;30381;52.754;18.258;2023-04-27T14:35:03;101026.02;;;13.74;37.44
44663;BME280;30381;52.754;18.258;2023-04-27T14:38:03;101028.80;;;13.65;37.47
44663;BME280;30381;52.754;18.258;2023-04-27T14:40:40;101031.20;;;13.51;37.48
44663;BME280;30381;52.754;18.258;2023-04-27T14:43:16;101028.35;;;13.37;37.36
44663;BME280;30381;52.754;18.258;2023-04-27T14:46:22;101037.09;;;13.19;37.45
44663;BME280;30381;52.754;18.258;2023-04-27T14:52:13;101038.94;;;13.07;37.80
44663;BME280;30381;52.754;18.258;2023-04-27T14:54:46;101035.55;;;13.03;37.81
44663;BME280;30381;52.754;18.258;2023-04-27T14:57:26;101038.29;;;12.99;37.83
44663;BME280;30381;52.754;18.258;2023-04-27T15:00:54;101039.02;;;12.95;38.02
44663;BME280;30381;52.754;18.258;2023-04-27T15:03:49;101035.30;;;12.93;38.12
44663;BME280;30381;52.754;18.258;2023-04-27T15:07:15;101036.36;;;12.86;38.09
44663;BME280;30381;52.754;18.258;2023-04-27T15:19:45;101043.94;;;12.77;38.25
44663;BME280;30381;52.754;18.258;2023-04-27T15:22:54;101048.05;;;12.72;38.32
44663;BME280;30381;52.754;18.258;2023-04-27T15:41:03;101044.59;;;12.42;38.88
44663;BME280;30381;52.754;18.258;2023-04-27T15:44:08;101045.57;;;12.47;38.98
44663;BME280;30381;52.754;18.258;2023-04-27T15:46:55;101047.09;;;12.55;39.00
44663;BME280;30381;52.754;18.258;2023-04-27T15:49:31;101046.98;;;12.55;38.80
44663;BME280;30381;52.754;18.258;2023-04-27T15:52:49;101049.58;;;12.35;38.57
44663;BME280;30381;52.754;18.258;2023-04-27T15:55:58;101050.64;;;12.08;38.74
44663;BME280;30381;52.754;18.258;2023-04-27T15:59:27;101052.64;;;11.83;39.01
44663;BME280;30381;52.754;18.258;2023-04-27T16:03:00;101050.46;;;11.63;39.36
44663;BME280;30381;52.754;18.258;2023-04-27T16:09:44;101054.45;;;11.39;39.78
44663;BME280;30381;52.754;18.258;2023-04-27T16:12:50;101052.15;;;11.37;40.14
44663;BME280;30381;52.754;18.258;2023-04-27T16:15:50;101052.14;;;11.38;40.18
44663;BME280;30381;52.754;18.258;2023-04-27T16:18:57;101047.86;;;11.34;40.33
44663;BME280;30381;52.754;18.258;2023-04-27T16:22:09;101052.05;;;11.32;40.35
44663;BME280;30381;52.754;18.258;2023-04-27T16:24:48;101050.95;;;11.36;40.26
44663;BME280;30381;52.754;18.258;2023-04-27T16:32:12;101052.98;;;11.49;40.45
44663;BME280;30381;52.754;18.258;2023-04-27T16:35:50;101056.00;;;11.52;40.51
44663;BME280;30381;52.754;18.258;2023-04-27T16:39:10;101058.75;;;11.50;40.61
44663;BME280;30381;52.754;18.258;2023-04-27T16:41:46;101054.55;;;11.47;40.53
44663;BME280;30381;52.754;18.258;2023-04-27T16:44:54;101053.08;;;11.42;40.70
44663;BME280;30381;52.754;18.258;2023-04-27T17:15:57;101069.77;;;10.65;41.76
44663;BME280;30381;52.754;18.258;2023-04-27T17:18:25;101069.37;;;10.49;42.00
44663;BME280;30381;52.754;18.258;2023-04-27T17:20:51;101070.14;;;10.34;42.07
44663;BME280;30381;52.754;18.258;2023-04-27T17:23:18;101073.56;;;10.18;42.42
44663;BME280;30381;52.754;18.258;2023-04-27T17:25:47;101073.42;;;10.04;42.56
44663;BME280;30381;52.754;18.258;2023-04-27T17:28:14;101074.23;;;9.88;42.65
44663;BME280;30381;52.754;18.258;2023-04-27T17:30:43;101074.95;;;9.76;42.80
44663;BME280;30381;52.754;18.258;2023-04-27T17:33:32;101075.45;;;9.63;42.89
44663;BME280;30381;52.754;18.258;2023-04-27T17:37:09;101073.75;;;9.43;43.24
44663;BME280;30381;52.754;18.258;2023-04-27T17:40:24;101077.33;;;9.27;43.50
44663;BME280;30381;52.754;18.258;2023-04-27T17:43:10;101079.28;;;9.16;43.68
44663;BME280;30381;52.754;18.258;2023-04-27T17:45:43;101076.96;;;9.05;43.85
44663;BME280;30381;52.754;18.258;2023-04-27T17:52:37;101074.58;;;8.76;44.41
44663;BME280;30381;52.754;18.258;2023-04-27T18:25:02;101102.78;;;7.82;47.41
44663;BME280;30381;52.754;18.258;2023-04-27T18:28:08;101099.27;;;7.63;48.04
44663;BME280;30381;52.754;18.258;2023-04-27T18:31:23;101107.02;;;7.45;48.36
44663;BME280;30381;52.754;18.258;2023-04-27T18:38:14;101111.17;;;7.10;49.09
44663;BME280;30381;52.754;18.258;2023-04-27T18:41:06;101114.15;;;6.96;49.22
44663;BME280;30381;52.754;18.258;2023-04-27T18:48:16;101125.31;;;6.66;49.53
44663;BME280;30381;52.754;18.258;2023-04-27T18:51:55;101125.23;;;6.51;49.88
44663;BME280;30381;52.754;18.258;2023-04-27T19:15:20;101147.50;;;6.45;52.21
44663;BME280;30381;52.754;18.258;2023-04-27T19:17:48;101142.30;;;6.41;52.30
44663;BME280;30381;52.754;18.258;2023-04-27T19:20:21;101146.16;;;6.37;52.48
44663;BME280;30381;52.754;18.258;2023-04-27T19:22:48;101146.17;;;6.33;52.58
44663;BME280;30381;52.754;18.258;2023-04-27T19:25:16;101149.02;;;6.30;52.85
44663;BME280;30381;52.754;18.258;2023-04-27T19:27:43;101151.42;;;6.27;52.88
44663;BME280;30381;52.754;18.258;2023-04-27T19:30:09;101147.30;;;6.23;53.21
44663;BME280;30381;52.754;18.258;2023-04-27T19:32:36;101154.16;;;6.18;53.70
44663;BME280;30381;52.754;18.258;2023-04-27T19:35:03;101152.71;;;6.13;54.00
44663;BME280;30381;52.754;18.258;2023-04-27T19:37:30;101153.82;;;6.07;54.31
44663;BME280;30381;52.754;18.258;2023-04-27T19:39:57;101155.45;;;6.01;54.51
44663;BME280;30381;52.754;18.258;2023-04-27T19:42:25;101156.48;;;5.95;54.99
44663;BME280;30381;52.754;18.258;2023-04-27T19:44:54;101161.02;;;5.88;54.94
44663;BME280;30381;52.754;18.258;2023-04-27T19:47:27;101161.28;;;5.83;55.02
44663;BME280;30381;52.754;18.258;2023-04-27T19:49:54;101161.63;;;5.76;55.13
44663;BME280;30381;52.754;18.258;2023-04-27T19:52:23;101161.38;;;5.71;55.35
44663;BME280;30381;52.754;18.258;2023-04-27T19:54:52;101161.36;;;5.66;55.57
44663;BME280;30381;52.754;18.258;2023-04-27T19:57:20;101164.19;;;5.60;55.76
44663;BME280;30381;52.754;18.258;2023-04-27T19:59:47;101168.88;;;5.55;56.07
44663;BME280;30381;52.754;18.258;2023-04-27T20:02:14;101172.09;;;5.51;56.32
44663;BME280;30381;52.754;18.258;2023-04-27T20:04:42;101172.49;;;5.46;56.56
44663;BME280;30381;52.754;18.258;2023-04-27T20:07:08;101172.91;;;5.43;56.75
44663;BME280;30381;52.754;18.258;2023-04-27T20:09:34;101176.73;;;5.41;57.14
44663;BME280;30381;52.754;18.258;2023-04-27T20:12:05;101177.88;;;5.39;57.51
44663;BME280;30381;52.754;18.258;2023-04-27T20:14:35;101183.04;;;5.38;57.65
44663;BME280;30381;52.754;18.258;2023-04-27T20:17:12;101185.77;;;5.38;58.07
44663;BME280;30381;52.754;18.258;2023-04-27T20:19:39;101185.55;;;5.38;58.28
44663;BME280;30381;52.754;18.258;2023-04-27T20:22:05;101190.48;;;5.40;58.58
44663;BME280;30381;52.754;18.258;2023-04-27T20:24:32;101189.61;;;5.41;58.78
44663;BME280;30381;52.754;18.258;2023-04-27T20:26:59;101192.27;;;5.43;58.84
44663;BME280;30381;52.754;18.258;2023-04-27T20:29:30;101191.29;;;5.45;58.97
44663;BME280;30381;52.754;18.258;2023-04-27T20:32:00;101188.80;;;5.44;59.13
44663;BME280;30381;52.754;18.258;2023-04-27T20:34:28;101192.47;;;5.44;59.20
44663;BME280;30381;52.754;18.258;2023-04-27T20:36:55;101197.79;;;5.43;59.31
44663;BME280;30381;52.754;18.258;2023-04-27T20:39:23;101197.09;;;5.40;59.59
44663;BME280;30381;52.754;18.258;2023-04-27T20:41:51;101204.16;;;5.35;59.81
44663;BME280;30381;52.754;18.258;2023-04-27T20:44:18;101203.80;;;5.29;60.08
44663;BME280;30381;52.754;18.258;2023-04-27T20:46:48;101206.94;;;5.23;60.26
44663;BME280;30381;52.754;18.258;2023-04-27T20:49:14;101206.11;;;5.16;60.29
44663;BME280;30381;52.754;18.258;2023-04-27T20:51:40;101206.27;;;5.09;60.28
44663;BME280;30381;52.754;18.258;2023-04-27T20:54:08;101206.05;;;5.02;60.52
44663;BME280;30381;52.754;18.258;2023-04-27T20:56:34;101204.40;;;4.94;60.72
44663;BME280;30381;52.754;18.258;2023-04-27T20:59:00;101204.77;;;4.86;60.76
44663;BME280;30381;52.754;18.258;2023-04-27T21:01:26;101200.77;;;4.76;60.78
44663;BME280;30381;52.754;18.258;2023-04-27T21:03:53;101201.58;;;4.66;60.97
44663;BME280;30381;52.754;18.258;2023-04-27T21:06:21;101203.45;;;4.57;61.13
44663;BME280;30381;52.754;18.258;2023-04-27T21:08:47;101198.38;;;4.49;61.36
44663;BME280;30381;52.754;18.258;2023-04-27T21:11:14;101201.02;;;4.39;61.25
44663;BME280;30381;52.754;18.258;2023-04-27T21:13:42;101199.13;;;4.29;61.79
44663;BME280;30381;52.754;18.258;2023-04-27T21:16:08;101198.85;;;4.19;62.25
44663;BME280;30381;52.754;18.258;2023-04-27T21:18:35;101198.73;;;4.10;62.40
44663;BME280;30381;52.754;18.258;2023-04-27T21:21:05;101201.86;;;4.02;62.80
44663;BME280;30381;52.754;18.258;2023-04-27T21:23:34;101197.67;;;3.93;62.99
44663;BME280;30381;52.754;18.258;2023-04-27T21:26:01;101204.36;;;3.84;63.02
44663;BME280;30381;52.754;18.258;2023-04-27T21:28:29;101202.21;;;3.76;63.33
44663;BME280;30381;52.754;18.258;2023-04-27T21:30:55;101199.66;;;3.68;63.54
44663;BME280;30381;52.754;18.258;2023-04-27T21:33:22;101198.94;;;3.61;63.80
44663;BME280;30381;52.754;18.258;2023-04-27T21:35:49;101202.77;;;3.54;64.40
44663;BME280;30381;52.754;18.258;2023-04-27T21:38:16;101202.79;;;3.46;64.34
44663;BME280;30381;52.754;18.258;2023-04-27T21:40:45;101201.30;;;3.37;64.62
44663;BME280;30381;52.754;18.258;2023-04-27T21:43:11;101205.28;;;3.29;65.06
44663;BME280;30381;52.754;18.258;2023-04-27T21:45:38;101207.84;;;3.22;65.32
44663;BME280;30381;52.754;18.258;2023-04-27T21:48:06;101210.92;;;3.16;65.61
44663;BME280;30381;52.754;18.258;2023-04-27T21:50:33;101212.31;;;3.10;65.94
44663;BME280;30381;52.754;18.258;2023-04-27T21:53:00;101215.00;;;3.05;66.17
44663;BME280;30381;52.754;18.258;2023-04-27T21:55:26;101217.88;;;3.00;66.44
44663;BME280;30381;52.754;18.258;2023-04-27T21:57:53;101217.64;;;2.94;66.96
44663;BME280;30381;52.754;18.258;2023-04-27T22:00:20;101220.50;;;2.89;67.15
44663;BME280;30381;52.754;18.258;2023-04-27T22:02:47;101216.80;;;2.83;67.34
44663;BME280;30381;52.754;18.258;2023-04-27T22:05:17;101217.83;;;2.77;67.73
44663;BME280;30381;52.754;18.258;2023-04-27T22:07:46;101217.30;;;2.72;68.42
44663;BME280;30381;52.754;18.258;2023-04-27T22:10:14;101217.98;;;2.66;68.35
44663;BME280;30381;52.754;18.258;2023-04-27T22:12:42;101215.96;;;2.60;68.73
44663;BME280;30381;52.754;18.258;2023-04-27T22:15:08;101214.09;;;2.54;68.76
44663;BME280;30381;52.754;18.258;2023-04-27T22:17:36;101216.52;;;2.49;68.86
44663;BME280;30381;52.754;18.258;2023-04-27T22:20:07;101214.35;;;2.43;68.98
44663;BME280;30381;52.754;18.258;2023-04-27T22:22:48;101217.69;;;2.37;69.46
44663;BME280;30381;52.754;18.258;2023-04-27T22:25:17;101217.89;;;2.31;69.91
44663;BME280;30381;52.754;18.258;2023-04-27T22:27:44;101212.33;;;2.27;70.54
44663;BME280;30381;52.754;18.258;2023-04-27T22:30:13;101218.34;;;2.23;70.38
44663;BME280;30381;52.754;18.258;2023-04-27T22:32:41;101216.59;;;2.17;70.58
44663;BME280;30381;52.754;18.258;2023-04-27T22:35:10;101215.48;;;2.12;71.11
44663;BME280;30381;52.754;18.258;2023-04-27T22:37:39;101215.49;;;2.08;71.18
44663;BME280;30381;52.754;18.258;2023-04-27T22:40:08;101218.52;;;2.03;71.68
44663;BME280;30381;52.754;18.258;2023-04-27T22:42:34;101221.09;;;1.97;71.78
44663;BME280;30381;52.754;18.258;2023-04-27T22:45:01;101223.38;;;1.93;72.25
44663;BME280;30381;52.754;18.258;2023-04-27T22:47:30;101220.45;;;1.87;72.69
44663;BME280;30381;52.754;18.258;2023-04-27T22:49:57;101220.37;;;1.81;73.13
44663;BME280;30381;52.754;18.258;2023-04-27T22:52:24;101219.66;;;1.76;73.22
44663;BME280;30381;52.754;18.258;2023-04-27T22:54:50;101219.41;;;1.70;73.30
44663;BME280;30381;52.754;18.258;2023-04-27T22:57:17;101217.61;;;1.65;73.40
44663;BME280;30381;52.754;18.258;2023-04-27T22:59:46;101219.79;;;1.60;74.07
44663;BME280;30381;52.754;18.258;2023-04-27T23:02:17;101217.05;;;1.54;74.06
44663;BME280;30381;52.754;18.258;2023-04-27T23:04:45;101215.02;;;1.50;74.49
44663;BME280;30381;52.754;18.258;2023-04-27T23:07:11;101214.38;;;1.46;74.89
44663;BME280;30381;52.754;18.258;2023-04-27T23:09:42;101215.17;;;1.42;74.84
44663;BME280;30381;52.754;18.258;2023-04-27T23:12:08;101211.23;;;1.37;74.86
44663;BME280;30381;52.754;18.258;2023-04-27T23:14:36;101211.88;;;1.33;75.13
44663;BME280;30381;52.754;18.258;2023-04-27T23:17:02;101212.17;;;1.28;75.30
44663;BME280;30381;52.754;18.258;2023-04-27T23:19:29;101210.42;;;1.24;75.92
44663;BME280;30381;52.754;18.258;2023-04-27T23:22:00;101213.56;;;1.20;76.08
44663;BME280;30381;52.754;18.258;2023-04-27T23:24:31;101209.19;;;1.13;76.18
44663;BME280;30381;52.754;18.258;2023-04-27T23:27:00;101209.39;;;1.09;76.53
44663;BME280;30381;52.754;18.258;2023-04-27T23:29:27;101213.17;;;1.05;76.69
44663;BME280;30381;52.754;18.258;2023-04-27T23:31:53;101209.23;;;1.02;77.14
44663;BME280;30381;52.754;18.258;2023-04-27T23:34:20;101210.81;;;1.01;77.62
44663;BME280;30381;52.754;18.258;2023-04-27T23:36:50;101208.21;;;0.98;77.94
44663;BME280;30381;52.754;18.258;2023-04-27T23:39:17;101205.73;;;0.95;77.89
44663;BME280;30381;52.754;18.258;2023-04-27T23:41:44;101207.67;;;0.90;78.07
44663;BME280;30381;52.754;18.258;2023-04-27T23:44:14;101208.61;;;0.86;78.22
44663;BME280;30381;52.754;18.258;2023-04-27T23:46:40;101207.16;;;0.83;78.38
44663;BME280;30381;52.754;18.258;2023-04-27T23:49:07;101207.91;;;0.79;78.49
44663;BME280;30381;52.754;18.258;2023-04-27T23:51:36;101207.63;;;0.75;78.76
44663;BME280;30381;52.754;18.258;2023-04-27T23:54:03;101204.64;;;0.71;79.02
44663;BME280;30381;52.754;18.258;2023-04-27T23:56:31;101209.73;;;0.68;79.16
44663;BME280;30381;52.754;18.258;2023-04-27T23:58:58;101213.83;;;0.65;79.28
